Time;durP1;ratioP1;P1;durP2;ratioP2;P2;SDS_P1;SDS_P2;PMS_P1;PMS_P2;Temp;Humidity;BMP_temperature;BMP_pressure;BME280_temperature;BME280_humidity;BME280_pressure;Samples;Min_cycle;Max_cycle;Signal;HPM_P1;HPM_P2
2023/04/30 00:01:03;;;;;;;;;;;;;;;10.81;57.48;101540.66;4105114;28;20055;-64
2023/04/30 00:03:06;;;;;;;;;;;;;;;10.78;57.76;101544.53;4104592;28;20372;-64
2023/04/30 00:05:09;;;;;;;;;;;;;;;10.71;57.67;101546.16;4072596;29;20635;-66
2023/04/30 00:07:11;;;;;;;;;;;;;;;10.68;57.93;101538.38;4104794;28;19930;-66
2023/04/30 00:09:14;;;;;;;;;;;;;;;10.66;58.24;101539.53;4104929;28;19927;-66
2023/04/30 00:11:17;;;;;;;;;;;;;;;10.62;58.23;101539.00;4105633;28;20020;-66
2023/04/30 00:13:19;;;;;;;;;;;;;;;10.60;58.29;101539.16;4105091;28;20025;-65
2023/04/30 00:15:23;;;;;;;;;;;;;;;10.57;58.87;101549.44;4105816;28;20009;-65
2023/04/30 00:17:25;;;;;;;;;;;;;;;10.51;58.91;101550.91;4105229;28;19977;-66
2023/04/30 00:19:29;;;;;;;;;;;;;;;10.46;59.17;101551.38;4104922;28;20005;-66
2023/04/30 00:21:32;;;;;;;;;;;;;;;10.42;59.40;101555.41;4088584;29;20029;-65
2023/04/30 00:23:34;;;;;;;;;;;;;;;10.37;59.61;101555.00;4104223;28;20017;-66
2023/04/30 00:25:36;;;;;;;;;;;;;;;10.34;59.58;101559.88;4105690;28;20021;-66
2023/04/30 00:27:39;;;;;;;;;;;;;;;10.32;59.45;101559.16;4105242;28;19934;-66
2023/04/30 00:29:41;;;;;;;;;;;;;;;10.32;59.59;101562.72;4105230;28;20025;-66
2023/04/30 00:31:44;;;;;;;;;;;;;;;10.31;59.57;101558.31;4088141;29;20473;-66
2023/04/30 00:33:46;;;;;;;;;;;;;;;10.29;59.76;101569.25;4104605;28;20029;-66
2023/04/30 00:35:50;;;;;;;;;;;;;;;10.26;59.60;101569.56;4087877;29;20030;-65
2023/04/30 00:37:52;;;;;;;;;;;;;;;10.25;59.66;101577.81;4087799;29;20368;-66
2023/04/30 00:39:54;;;;;;;;;;;;;;;10.22;59.62;101579.00;4105208;28;20591;-66
2023/04/30 00:41:56;;;;;;;;;;;;;;;10.21;59.28;101571.06;4105347;28;20536;-65
2023/04/30 00:43:58;;;;;;;;;;;;;;;10.19;59.15;101576.59;4104127;28;20038;-66
2023/04/30 00:46:02;;;;;;;;;;;;;;;10.14;59.30;101586.16;4105036;28;20554;-66
2023/04/30 00:48:04;;;;;;;;;;;;;;;10.10;59.61;101586.47;4087601;29;20468;-65
2023/04/30 00:50:08;;;;;;;;;;;;;;;10.09;59.64;101583.91;4095724;29;20365;-66
2023/04/30 00:52:11;;;;;;;;;;;;;;;10.08;59.11;101596.56;4103248;28;20029;-66
2023/04/30 00:54:13;;;;;;;;;;;;;;;10.07;59.21;101588.63;4104795;28;20363;-66
2023/04/30 00:56:16;;;;;;;;;;;;;;;10.06;59.54;101589.63;4105602;28;20017;-65
2023/04/30 00:58:18;;;;;;;;;;;;;;;10.04;59.67;101588.94;4104183;28;20021;-66
2023/04/30 01:00:20;;;;;;;;;;;;;;;10.02;59.59;101594.47;4087383;29;20025;-65
2023/04/30 01:02:22;;;;;;;;;;;;;;;10.01;59.52;101608.13;4088308;28;20026;-68
2023/04/30 01:04:24;;;;;;;;;;;;;;;9.97;59.70;101604.03;4088693;28;20045;-65
2023/04/30 01:06:26;;;;;;;;;;;;;;;9.95;60.17;101606.03;4104509;28;20028;-65
2023/04/30 01:08:30;;;;;;;;;;;;;;;9.92;60.22;101607.16;4103537;28;19934;-65
2023/04/30 01:10:34;;;;;;;;;;;;;;;9.95;59.52;101604.16;4102965;28;20388;-66
2023/04/30 01:12:37;;;;;;;;;;;;;;;9.98;59.44;101609.25;4071076;29;20065;-65
2023/04/30 01:14:41;;;;;;;;;;;;;;;10.01;58.92;101610.81;4104351;28;20025;-65
2023/04/30 01:16:44;;;;;;;;;;;;;;;10.00;59.13;101615.38;4105488;28;20016;-64
2023/04/30 01:18:47;;;;;;;;;;;;;;;10.01;58.85;101614.34;4104814;28;20025;-64
2023/04/30 01:20:50;;;;;;;;;;;;;;;10.03;58.93;101615.06;4103708;28;20017;-64
2023/04/30 01:22:55;;;;;;;;;;;;;;;10.03;58.72;101616.91;4104924;28;20045;-64
2023/04/30 01:25:25;;;;;;;;;;;;;;;10.00;58.54;101617.22;4087434;28;20383;-64
2023/04/30 01:27:31;;;;;;;;;;;;;;;9.98;58.50;101619.22;4072385;29;20025;-66
2023/04/30 01:29:35;;;;;;;;;;;;;;;9.97;58.39;101623.78;4104069;28;19930;-65
2023/04/30 01:31:37;;;;;;;;;;;;;;;9.97;58.40;101628.31;4104962;28;20013;-64
2023/04/30 01:33:39;;;;;;;;;;;;;;;9.95;58.12;101628.47;4087896;28;20439;-64
2023/04/30 01:35:44;;;;;;;;;;;;;;;9.93;58.38;101616.97;4104487;28;20021;-64
2023/04/30 01:37:47;;;;;;;;;;;;;;;9.91;58.28;101618.97;4104960;28;20017;-64
2023/04/30 01:39:53;;;;;;;;;;;;;;;9.89;58.10;101623.66;4105092;28;20021;-65
2023/04/30 01:41:58;;;;;;;;;;;;;;;9.87;58.54;101631.94;4071551;29;20025;-65
2023/04/30 01:44:04;;;;;;;;;;;;;;;9.86;58.18;101627.53;4104575;28;20029;-65
2023/04/30 01:46:10;;;;;;;;;;;;;;;9.88;58.25;101632.78;4086675;29;20074;-64
2023/04/30 01:48:29;;;;;;;;;;;;;;;9.89;57.98;101638.03;4087904;29;20017;-64
2023/04/30 01:50:34;;;;;;;;;;;;;;;9.89;57.98;101639.84;4104351;28;19956;-64
2023/04/30 01:52:38;;;;;;;;;;;;;;;9.87;57.97;101636.47;4086176;29;20017;-64
2023/04/30 01:54:42;;;;;;;;;;;;;;;9.86;58.02;101643.72;4088085;28;20022;-64
2023/04/30 01:56:49;;;;;;;;;;;;;;;9.85;58.00;101652.81;4105247;28;20014;-64
2023/04/30 01:58:51;;;;;;;;;;;;;;;9.81;57.94;101646.03;4072403;29;20059;-64
2023/04/30 02:00:53;;;;;;;;;;;;;;;9.81;57.95;101647.84;4072097;29;20021;-64
2023/04/30 02:02:56;;;;;;;;;;;;;;;9.81;57.96;101650.56;4104785;28;20021;-64
2023/04/30 02:04:58;;;;;;;;;;;;;;;9.80;57.94;101649.72;4107109;28;20029;-64
2023/04/30 02:07:00;;;;;;;;;;;;;;;9.78;58.38;101657.13;4108493;28;20032;-64
2023/04/30 02:09:05;;;;;;;;;;;;;;;9.78;58.25;101661.66;4090229;28;20415;-64
2023/04/30 02:11:07;;;;;;;;;;;;;;;9.76;58.16;101666.34;4107849;28;19940;-65
2023/04/30 02:13:09;;;;;;;;;;;;;;;9.73;58.43;101660.25;4089904;29;20013;-65
2023/04/30 02:15:11;;;;;;;;;;;;;;;9.71;58.62;101673.03;4107392;28;20057;-65
2023/04/30 02:17:15;;;;;;;;;;;;;;;9.69;58.55;101672.34;4105747;28;20033;-65
2023/04/30 02:19:19;;;;;;;;;;;;;;;9.68;58.52;101675.19;4090565;29;20026;-65
2023/04/30 02:21:21;;;;;;;;;;;;;;;9.67;58.77;101673.47;4107129;28;20441;-65
2023/04/30 02:23:23;;;;;;;;;;;;;;;9.65;59.07;101681.72;4089456;29;20021;-65
2023/04/30 02:25:25;;;;;;;;;;;;;;;9.66;58.78;101685.28;4090028;28;20061;-65
2023/04/30 02:27:27;;;;;;;;;;;;;;;9.63;58.90;101678.31;4107105;28;20033;-65
2023/04/30 02:29:29;;;;;;;;;;;;;;;9.62;58.94;101679.31;4107086;28;20025;-65
2023/04/30 02:31:31;;;;;;;;;;;;;;;9.62;59.19;101687.41;4059614;29;20429;-65
2023/04/30 02:33:33;;;;;;;;;;;;;;;9.62;59.57;101689.25;4106846;28;20025;-65
2023/04/30 02:35:37;;;;;;;;;;;;;;;9.61;59.16;101688.41;4107343;28;20381;-65
2023/04/30 02:37:39;;;;;;;;;;;;;;;9.60;59.30;101692.09;4089813;29;20021;-65
2023/04/30 02:39:41;;;;;;;;;;;;;;;9.59;59.64;101692.25;4106533;28;20025;-65
2023/04/30 02:41:43;;;;;;;;;;;;;;;9.55;59.49;101689.84;4107321;28;20038;-65
2023/04/30 02:43:45;;;;;;;;;;;;;;;9.51;59.85;101688.47;4106953;28;20028;-65
2023/04/30 02:45:47;;;;;;;;;;;;;;;9.49;59.63;101692.28;4090597;29;20017;-65
2023/04/30 02:47:49;;;;;;;;;;;;;;;9.49;60.02;101693.13;4089383;29;20567;-65
2023/04/30 02:49:51;;;;;;;;;;;;;;;9.44;59.62;101694.59;4106799;28;20464;-65
2023/04/30 02:51:55;;;;;;;;;;;;;;;9.43;59.84;101691.00;4088641;29;19961;-66
2023/04/30 02:53:57;;;;;;;;;;;;;;;9.42;59.71;101685.75;4089697;29;20022;-65
2023/04/30 02:55:59;;;;;;;;;;;;;;;9.41;60.04;101695.72;4090383;29;20025;-65
2023/04/30 02:58:01;;;;;;;;;;;;;;;9.43;59.88;101695.56;4106690;28;20009;-65
2023/04/30 03:00:03;;;;;;;;;;;;;;;9.43;60.13;101706.34;4089508;29;20025;-65
2023/04/30 03:02:05;;;;;;;;;;;;;;;9.45;59.95;101705.22;4089447;29;20110;-65
2023/04/30 03:04:07;;;;;;;;;;;;;;;9.45;59.99;101709.75;4089199;29;19965;-65
2023/04/30 03:06:09;;;;;;;;;;;;;;;9.42;59.81;101707.34;4105549;28;20009;-64
2023/04/30 03:08:13;;;;;;;;;;;;;;;9.39;60.19;101705.81;4088924;28;20018;-65
2023/04/30 03:10:15;;;;;;;;;;;;;;;9.36;59.95;101708.78;4090295;29;20033;-65
2023/04/30 03:12:17;;;;;;;;;;;;;;;9.33;60.34;101709.09;4106705;28;19937;-65
2023/04/30 03:14:19;;;;;;;;;;;;;;;9.31;60.42;101714.63;4073632;29;20009;-64
2023/04/30 03:16:21;;;;;;;;;;;;;;;9.30;60.23;101712.06;4088773;29;20472;-65
2023/04/30 03:18:23;;;;;;;;;;;;;;;9.27;60.22;101713.19;4074027;29;20018;-65
2023/04/30 03:20:25;;;;;;;;;;;;;;;9.27;60.47;101713.19;4106377;28;20016;-65
2023/04/30 03:22:29;;;;;;;;;;;;;;;9.25;60.73;101714.31;4105291;28;20233;-65
2023/04/30 03:24:33;;;;;;;;;;;;;;;9.21;60.89;101713.78;4105889;28;20009;-64
2023/04/30 03:26:35;;;;;;;;;;;;;;;9.20;60.76;101714.78;4106685;28;20017;-65
2023/04/30 03:28:37;;;;;;;;;;;;;;;9.17;60.75;101717.75;4106861;28;20020;-65
2023/04/30 03:30:39;;;;;;;;;;;;;;;9.14;60.74;101724.28;4074259;29;20025;-65
2023/04/30 03:32:41;;;;;;;;;;;;;;;9.11;60.90;101727.25;4104692;28;20057;-65
2023/04/30 03:34:43;;;;;;;;;;;;;;;9.10;61.08;101730.09;4089421;29;20053;-65
2023/04/30 03:36:46;;;;;;;;;;;;;;;9.12;60.80;101730.78;4089223;29;20031;-65
2023/04/30 03:38:48;;;;;;;;;;;;;;;9.12;60.67;101718.19;4103769;28;20584;-65
2023/04/30 03:40:51;;;;;;;;;;;;;;;9.11;60.74;101727.25;4105582;28;20009;-65
2023/04/30 03:42:53;;;;;;;;;;;;;;;9.11;60.56;101723.72;4106362;28;20025;-65
2023/04/30 03:44:55;;;;;;;;;;;;;;;9.08;60.71;101721.31;4106149;28;20397;-65
2023/04/30 03:46:57;;;;;;;;;;;;;;;9.05;61.06;101727.00;4073891;29;20054;-65
2023/04/30 03:49:00;;;;;;;;;;;;;;;9.04;61.13;101731.50;4105729;28;20056;-65
2023/04/30 03:51:02;;;;;;;;;;;;;;;9.04;60.87;101730.66;4104970;28;20028;-65
2023/04/30 03:53:04;;;;;;;;;;;;;;;9.02;61.23;101737.03;4104599;28;20425;-65
2023/04/30 03:55:07;;;;;;;;;;;;;;;9.02;61.12;101737.03;4087885;29;20034;-65
2023/04/30 03:57:12;;;;;;;;;;;;;;;9.02;60.91;101745.13;4088553;29;20046;-65
2023/04/30 03:59:14;;;;;;;;;;;;;;;9.00;61.04;101741.72;4075080;29;19967;-63
2023/04/30 04:01:17;;;;;;;;;;;;;;;8.98;60.91;101745.56;4091063;28;20026;-65
2023/04/30 04:03:19;;;;;;;;;;;;;;;8.96;61.03;101747.53;4103640;28;20012;-65
2023/04/30 04:05:21;;;;;;;;;;;;;;;8.94;61.21;101753.06;4089924;29;20001;-65
2023/04/30 04:07:24;;;;;;;;;;;;;;;8.92;61.08;101757.75;4090124;29;20033;-65
2023/04/30 04:09:26;;;;;;;;;;;;;;;8.90;61.32;101765.13;4090187;28;20025;-65
2023/04/30 04:11:28;;;;;;;;;;;;;;;8.90;61.15;101767.81;4088131;29;20017;-64
2023/04/30 04:13:32;;;;;;;;;;;;;;;8.91;61.15;101766.81;4103521;28;20415;-64
2023/04/30 04:15:35;;;;;;;;;;;;;;;8.92;61.27;101765.84;4087874;29;20465;-65
2023/04/30 04:17:38;;;;;;;;;;;;;;;8.93;60.95;101764.84;4072797;29;20386;-65
2023/04/30 04:19:40;;;;;;;;;;;;;;;8.93;61.00;101764.84;4087514;29;20021;-65
2023/04/30 04:21:42;;;;;;;;;;;;;;;8.92;60.92;101771.22;4104457;28;20025;-65
2023/04/30 04:23:49;;;;;;;;;;;;;;;8.88;61.00;101772.50;4088204;29;20088;-65
2023/04/30 04:25:52;;;;;;;;;;;;;;;8.86;61.37;101776.34;4087303;28;20037;-64
2023/04/30 04:27:55;;;;;;;;;;;;;;;8.82;61.48;101776.63;4088037;29;20037;-65
2023/04/30 04:29:59;;;;;;;;;;;;;;;8.81;61.57;101774.06;4105373;28;20041;-64
2023/04/30 04:32:03;;;;;;;;;;;;;;;8.81;61.34;101776.75;4088243;29;20017;-65
2023/04/30 04:34:06;;;;;;;;;;;;;;;8.80;61.69;101780.44;4103262;28;19930;-65
2023/04/30 04:36:08;;;;;;;;;;;;;;;8.78;61.54;101785.97;4103163;28;20062;-65
2023/04/30 04:38:10;;;;;;;;;;;;;;;8.79;61.70;101790.38;4105022;28;20045;-65
2023/04/30 04:40:12;;;;;;;;;;;;;;;8.78;61.75;101788.66;4072606;29;20034;-64
2023/04/30 04:42:17;;;;;;;;;;;;;;;8.79;61.71;101794.88;4103479;28;20025;-65
2023/04/30 04:44:19;;;;;;;;;;;;;;;8.77;61.51;101795.03;4104243;28;20021;-65
2023/04/30 04:46:23;;;;;;;;;;;;;;;8.76;61.65;101798.72;4088739;29;20034;-65
2023/04/30 04:48:26;;;;;;;;;;;;;;;8.76;61.27;101796.03;4103748;28;20026;-65
2023/04/30 04:50:28;;;;;;;;;;;;;;;8.77;61.35;101799.56;4104424;28;20475;-64
2023/04/30 04:52:30;;;;;;;;;;;;;;;8.79;61.37;101802.97;4087401;29;20025;-64
2023/04/30 04:54:32;;;;;;;;;;;;;;;8.80;61.24;101801.97;4088400;29;20383;-65
2023/04/30 04:56:34;;;;;;;;;;;;;;;8.81;61.12;101814.47;4105404;28;20025;-64
2023/04/30 04:58:36;;;;;;;;;;;;;;;8.81;61.19;101806.41;4071697;29;20025;-65
2023/04/30 05:00:38;;;;;;;;;;;;;;;8.79;60.91;101820.00;4087946;29;20025;-65
2023/04/30 05:02:42;;;;;;;;;;;;;;;8.78;60.90;101820.97;4087252;29;20021;-65
2023/04/30 05:04:45;;;;;;;;;;;;;;;8.77;60.86;101827.34;4103304;28;20030;-65
2023/04/30 05:06:47;;;;;;;;;;;;;;;8.76;61.12;101828.34;4104941;28;20013;-65
2023/04/30 05:08:50;;;;;;;;;;;;;;;8.77;60.69;101824.66;4104960;28;20017;-65
2023/04/30 05:10:52;;;;;;;;;;;;;;;8.77;61.09;101827.34;4104829;28;20053;-65
2023/04/30 05:12:54;;;;;;;;;;;;;;;8.80;60.77;101834.31;4072565;29;20394;-65
2023/04/30 05:14:56;;;;;;;;;;;;;;;8.78;61.12;101836.31;4104691;28;19965;-66
2023/04/30 05:16:58;;;;;;;;;;;;;;;8.80;60.88;101840.53;4104481;28;20013;-64
2023/04/30 05:19:02;;;;;;;;;;;;;;;8.81;60.67;101846.81;4074551;29;20469;-63
2023/04/30 05:21:04;;;;;;;;;;;;;;;8.81;60.85;101844.09;4088237;28;20017;-64
2023/04/30 05:23:06;;;;;;;;;;;;;;;8.81;60.73;101849.50;4088899;29;20346;-64
2023/04/30 05:25:08;;;;;;;;;;;;;;;8.81;60.93;101849.50;4089247;29;20013;-65
2023/04/30 05:27:10;;;;;;;;;;;;;;;8.83;60.98;101858.28;4089052;29;20034;-65
2023/04/30 05:29:13;;;;;;;;;;;;;;;8.83;60.74;101856.44;4089570;29;20025;-65
2023/04/30 05:31:15;;;;;;;;;;;;;;;8.82;60.64;101857.44;4089268;29;20037;-64
2023/04/30 05:33:17;;;;;;;;;;;;;;;8.84;60.46;101860.84;4089039;29;20721;-66
2023/04/30 05:35:20;;;;;;;;;;;;;;;8.87;60.54;101864.22;4089460;29;19962;-64
2023/04/30 05:37:22;;;;;;;;;;;;;;;8.86;60.93;101863.41;4088681;28;20065;-63
2023/04/30 05:39:24;;;;;;;;;;;;;;;8.87;60.67;101872.31;4092371;29;20021;-61
2023/04/30 05:41:26;;;;;;;;;;;;;;;8.88;61.00;101871.34;4092646;29;20017;-65
2023/04/30 05:43:29;;;;;;;;;;;;;;;8.90;60.76;101872.03;4092069;28;19931;-65
2023/04/30 05:45:30;;;;;;;;;;;;;;;8.92;60.86;101872.75;4092145;29;20021;-65
2023/04/30 05:47:32;;;;;;;;;;;;;;;8.92;60.57;101876.31;4092358;28;20018;-65
2023/04/30 05:49:34;;;;;;;;;;;;;;;8.93;60.84;101874.47;4092061;28;20017;-65
2023/04/30 05:51:38;;;;;;;;;;;;;;;8.95;61.00;101876.03;4092107;29;20058;-63
2023/04/30 05:53:40;;;;;;;;;;;;;;;8.97;60.75;101883.97;4091483;29;20477;-63
2023/04/30 05:55:42;;;;;;;;;;;;;;;9.01;60.57;101877.31;4092312;29;19974;-64
2023/04/30 05:57:44;;;;;;;;;;;;;;;9.01;60.29;101874.59;4091684;29;20433;-63
2023/04/30 05:59:47;;;;;;;;;;;;;;;9.01;60.46;101883.56;4092432;29;20013;-64
2023/04/30 06:01:49;;;;;;;;;;;;;;;9.04;60.07;101882.41;4092000;29;20026;-64
2023/04/30 06:03:51;;;;;;;;;;;;;;;9.04;60.29;101882.41;4091450;29;20018;-64
2023/04/30 06:05:54;;;;;;;;;;;;;;;9.06;60.40;101885.84;4090934;29;20481;-65
2023/04/30 06:07:58;;;;;;;;;;;;;;;9.07;60.06;101890.22;4091145;29;20369;-63
2023/04/30 06:10:00;;;;;;;;;;;;;;;9.09;60.05;101888.28;4074917;29;20025;-65
2023/04/30 06:12:02;;;;;;;;;;;;;;;9.12;59.87;101892.50;4092231;28;20453;-64
2023/04/30 06:14:04;;;;;;;;;;;;;;;9.14;59.84;101893.25;4091927;29;20461;-64
2023/04/30 06:16:08;;;;;;;;;;;;;;;9.14;59.82;101890.53;4092161;29;19959;-66
2023/04/30 06:18:12;;;;;;;;;;;;;;;9.16;59.95;101893.94;4091395;29;20053;-65
2023/04/30 06:20:14;;;;;;;;;;;;;;;9.19;59.85;101890.97;4096546;28;20373;-65
2023/04/30 06:22:16;;;;;;;;;;;;;;;9.19;59.55;101899.06;4105450;28;20385;-65
2023/04/30 06:24:20;;;;;;;;;;;;;;;9.19;59.47;101888.28;4107525;28;20009;-65
2023/04/30 06:26:22;;;;;;;;;;;;;;;9.19;59.11;101891.81;4107721;28;20030;-65
2023/04/30 06:28:24;;;;;;;;;;;;;;;9.20;59.07;101900.78;4107251;28;20024;-65
2023/04/30 06:30:26;;;;;;;;;;;;;;;9.20;59.41;101898.91;4105795;28;20029;-65
2023/04/30 06:32:28;;;;;;;;;;;;;;;9.25;59.52;101898.50;4107287;28;20020;-64
2023/04/30 06:34:30;;;;;;;;;;;;;;;9.27;58.91;101901.06;4108649;28;20021;-65
2023/04/30 06:36:33;;;;;;;;;;;;;;;9.29;58.99;101899.06;4107913;28;20347;-66
2023/04/30 06:38:35;;;;;;;;;;;;;;;9.30;59.19;101898.91;4106469;28;20499;-65
2023/04/30 06:40:38;;;;;;;;;;;;;;;9.26;58.80;101892.09;4106321;28;20025;-65
2023/04/30 06:42:40;;;;;;;;;;;;;;;9.32;58.75;101905.00;4106763;28;20519;-65
2023/04/30 06:44:42;;;;;;;;;;;;;;;9.35;59.06;101902.03;4107515;28;20017;-65
2023/04/30 06:46:44;;;;;;;;;;;;;;;9.38;58.50;101900.91;4089766;29;20428;-65
2023/04/30 06:48:48;;;;;;;;;;;;;;;9.41;58.74;101897.94;4073968;29;20026;-65
2023/04/30 06:50:50;;;;;;;;;;;;;;;9.44;58.54;101902.22;4106399;28;19989;-66
2023/04/30 06:52:52;;;;;;;;;;;;;;;9.45;58.37;101899.38;4106620;28;20029;-65
2023/04/30 06:54:54;;;;;;;;;;;;;;;9.47;58.39;101908.16;4107543;28;20021;-65
2023/04/30 06:56:57;;;;;;;;;;;;;;;9.48;58.12;101903.63;4106159;28;19930;-65
2023/04/30 06:59:02;;;;;;;;;;;;;;;9.45;57.95;101911.97;4101020;28;20013;-65
2023/04/30 07:01:05;;;;;;;;;;;;;;;9.48;58.67;101906.31;4104147;28;20037;-66
2023/04/30 07:03:07;;;;;;;;;;;;;;;9.50;58.75;101901.66;4103387;28;20046;-66
2023/04/30 07:05:10;;;;;;;;;;;;;;;9.54;58.56;101900.34;4103625;28;20016;-65
2023/04/30 07:07:12;;;;;;;;;;;;;;;9.57;58.10;101903.59;4102757;28;20367;-64
2023/04/30 07:09:15;;;;;;;;;;;;;;;9.60;58.06;101901.63;4100425;28;21783;-64
2023/04/30 07:11:17;;;;;;;;;;;;;;;9.64;57.74;101900.34;4100903;28;20044;-64
2023/04/30 07:13:20;;;;;;;;;;;;;;;9.62;57.20;101902.34;4102607;28;20021;-64
2023/04/30 07:15:22;;;;;;;;;;;;;;;9.61;57.18;101904.19;4102910;28;20025;-65
2023/04/30 07:17:25;;;;;;;;;;;;;;;9.59;57.10;101906.16;4102414;28;20005;-63
2023/04/30 07:19:27;;;;;;;;;;;;;;;9.61;56.76;101897.94;4103016;28;20049;-64
2023/04/30 07:21:31;;;;;;;;;;;;;;;9.59;56.78;101903.47;4102192;28;20021;-63
2023/04/30 07:23:33;;;;;;;;;;;;;;;9.60;56.64;101907.88;4071657;29;20026;-65
2023/04/30 07:25:35;;;;;;;;;;;;;;;9.60;56.17;101905.19;4104172;28;20025;-64
2023/04/30 07:27:37;;;;;;;;;;;;;;;9.60;56.22;101905.19;4072176;29;20030;-65
2023/04/30 07:29:41;;;;;;;;;;;;;;;9.61;55.58;101904.19;4103332;28;20025;-65
2023/04/30 07:31:43;;;;;;;;;;;;;;;9.64;55.57;101905.75;4103078;28;20030;-65
2023/04/30 07:33:45;;;;;;;;;;;;;;;9.69;55.63;101906.19;4102073;28;20369;-66
2023/04/30 07:35:47;;;;;;;;;;;;;;;9.74;56.06;101912.00;4100438;28;20642;-66
2023/04/30 07:37:49;;;;;;;;;;;;;;;9.77;55.91;101911.72;4100960;28;20357;-66
2023/04/30 07:39:51;;;;;;;;;;;;;;;9.81;56.01;101904.16;4102007;28;20597;-66
2023/04/30 07:41:53;;;;;;;;;;;;;;;9.84;55.89;101914.69;4101926;28;20356;-65
2023/04/30 07:43:55;;;;;;;;;;;;;;;9.86;56.29;101916.25;4102726;28;20022;-64
2023/04/30 07:45:59;;;;;;;;;;;;;;;9.86;55.73;101905.47;4102152;28;20033;-65
2023/04/30 07:48:01;;;;;;;;;;;;;;;9.87;55.68;101911.69;4103047;28;20026;-65
2023/04/30 07:50:03;;;;;;;;;;;;;;;9.90;56.18;101908.72;4085280;29;20030;-65
2023/04/30 07:52:09;;;;;;;;;;;;;;;9.91;56.08;101903.16;4100076;28;20021;-65
2023/04/30 07:54:11;;;;;;;;;;;;;;;9.93;55.79;101913.81;4102338;28;20104;-66
2023/04/30 07:56:13;;;;;;;;;;;;;;;9.94;55.11;101907.44;4102517;28;20010;-65
2023/04/30 07:58:15;;;;;;;;;;;;;;;9.97;55.11;101915.25;4102054;28;20381;-65
2023/04/30 08:00:17;;;;;;;;;;;;;;;10.00;55.14;101924.88;4102240;28;20021;-64
2023/04/30 08:02:21;;;;;;;;;;;;;;;10.03;54.84;101911.97;4102337;28;20032;-65
2023/04/30 08:04:24;;;;;;;;;;;;;;;10.03;53.90;101920.06;4096792;28;20048;-65
2023/04/30 08:06:27;;;;;;;;;;;;;;;10.03;53.76;101922.78;4102584;28;19930;-64
2023/04/30 08:08:29;;;;;;;;;;;;;;;10.06;53.71;101924.31;4102788;28;20017;-64
2023/04/30 08:10:31;;;;;;;;;;;;;;;10.08;53.38;101922.34;4100906;28;20963;-65
2023/04/30 08:12:35;;;;;;;;;;;;;;;10.10;52.54;101923.03;4101001;28;20020;-64
2023/04/30 08:14:39;;;;;;;;;;;;;;;10.15;52.99;101912.63;4100808;28;20021;-64
2023/04/30 08:16:42;;;;;;;;;;;;;;;10.18;53.38;101912.34;4101995;28;20053;-68
2023/04/30 08:18:45;;;;;;;;;;;;;;;10.23;52.82;101912.75;4101872;28;20386;-65
2023/04/30 08:20:47;;;;;;;;;;;;;;;10.24;52.51;101913.63;4102286;28;20013;-65
2023/04/30 08:22:49;;;;;;;;;;;;;;;10.21;51.92;101914.75;4101413;28;20029;-64
2023/04/30 08:24:52;;;;;;;;;;;;;;;10.21;52.20;101920.16;4103580;28;19934;-64
2023/04/30 08:26:54;;;;;;;;;;;;;;;10.20;51.51;101915.78;4102508;28;20024;-64
2023/04/30 08:28:56;;;;;;;;;;;;;;;10.20;51.55;101923.88;4102403;28;20029;-64
2023/04/30 08:30:58;;;;;;;;;;;;;;;10.23;51.80;101922.72;4100819;28;20375;-64
2023/04/30 08:33:00;;;;;;;;;;;;;;;10.27;52.32;101922.28;4101405;28;20017;-64
2023/04/30 08:35:03;;;;;;;;;;;;;;;10.28;51.68;101918.59;4102524;28;20021;-64
2023/04/30 08:37:05;;;;;;;;;;;;;;;10.31;50.87;101924.69;4104027;28;19969;-64
2023/04/30 08:39:08;;;;;;;;;;;;;;;10.31;50.64;101916.59;4104589;28;19976;-65
2023/04/30 08:41:11;;;;;;;;;;;;;;;10.31;51.01;101920.13;4102888;28;20025;-63
2023/04/30 08:43:13;;;;;;;;;;;;;;;10.34;51.02;101921.72;4102328;28;20025;-65
2023/04/30 08:45:16;;;;;;;;;;;;;;;10.35;51.25;101926.97;4104233;28;20481;-63
2023/04/30 08:47:18;;;;;;;;;;;;;;;10.37;50.57;101916.88;4100973;28;20061;-64
2023/04/30 08:49:20;;;;;;;;;;;;;;;10.40;50.92;101926.53;4102816;28;20016;-64
2023/04/30 08:51:23;;;;;;;;;;;;;;;10.40;50.48;101927.38;4104319;28;20425;-65
2023/04/30 08:53:25;;;;;;;;;;;;;;;10.37;49.96;101921.44;4103017;28;20403;-65
2023/04/30 08:55:27;;;;;;;;;;;;;;;10.41;51.13;101917.47;4105350;28;20028;-64
2023/04/30 08:57:29;;;;;;;;;;;;;;;10.42;50.57;101928.09;4104083;28;20048;-65
2023/04/30 08:59:31;;;;;;;;;;;;;;;10.43;49.51;101923.56;4105080;28;20462;-65
2023/04/30 09:01:33;;;;;;;;;;;;;;;10.42;49.27;101921.84;4102781;28;20057;-65
2023/04/30 09:03:35;;;;;;;;;;;;;;;10.43;49.84;101916.28;4103639;28;19961;-64
2023/04/30 09:05:38;;;;;;;;;;;;;;;10.44;49.78;101926.09;4104390;28;20017;-65
2023/04/30 09:07:42;;;;;;;;;;;;;;;10.46;50.14;101928.66;4102173;28;20017;-62
2023/04/30 09:09:45;;;;;;;;;;;;;;;10.50;49.94;101934.59;4101165;28;20013;-64
2023/04/30 09:11:47;;;;;;;;;;;;;;;10.54;50.47;101930.63;4104762;28;19965;-65
2023/04/30 09:13:49;;;;;;;;;;;;;;;10.57;50.65;101923.06;4103422;28;20361;-64
2023/04/30 09:15:52;;;;;;;;;;;;;;;10.60;50.92;101927.34;4104814;28;20025;-64
2023/04/30 09:18:10;;;;;;;;;;;;;;;10.62;50.68;101928.03;4105195;28;20029;-65
2023/04/30 09:20:14;;;;;;;;;;;;;;;10.64;50.09;101926.91;4103899;28;20014;-63
2023/04/30 09:22:19;;;;;;;;;;;;;;;10.63;48.42;101933.28;4086937;28;20021;-64
2023/04/30 09:24:23;;;;;;;;;;;;;;;10.64;48.76;101935.00;4088710;28;20026;-65
2023/04/30 09:26:30;;;;;;;;;;;;;;;10.69;50.75;101937.25;4104674;28;20008;-64
2023/04/30 09:28:33;;;;;;;;;;;;;;;10.73;51.05;101925.13;4105453;28;20424;-65
2023/04/30 09:30:35;;;;;;;;;;;;;;;10.70;47.07;101933.53;4103853;28;20401;-65
2023/04/30 09:32:45;;;;;;;;;;;;;;;10.71;47.59;101937.09;4073182;29;20430;-64
2023/04/30 09:34:48;;;;;;;;;;;;;;;10.73;48.67;101929.69;4088156;29;20453;-65
2023/04/30 09:36:57;;;;;;;;;;;;;;;10.75;48.49;101935.78;4086600;29;20632;-65
2023/04/30 09:39:06;;;;;;;;;;;;;;;10.77;47.84;101931.94;4102022;28;19965;-65
2023/04/30 09:41:21;;;;;;;;;;;;;;;10.77;47.96;101929.25;4104690;28;19931;-65
2023/04/30 09:43:23;;;;;;;;;;;;;;;10.76;46.50;101935.63;4088597;29;20013;-65
2023/04/30 09:45:29;;;;;;;;;;;;;;;10.77;46.30;101937.34;4104277;28;20030;-65
2023/04/30 09:47:31;;;;;;;;;;;;;;;10.80;48.39;101930.81;4104988;28;19938;-64
2023/04/30 09:49:33;;;;;;;;;;;;;;;10.81;46.97;101938.78;4103893;28;20024;-64
2023/04/30 09:51:36;;;;;;;;;;;;;;;10.84;47.42;101931.34;4103486;28;20663;-64
2023/04/30 09:53:40;;;;;;;;;;;;;;;10.86;46.50;101926.63;4100438;28;20029;-65
2023/04/30 09:55:42;;;;;;;;;;;;;;;10.90;48.92;101925.34;4103525;28;20025;-65
2023/04/30 09:57:46;;;;;;;;;;;;;;;10.91;47.38;101927.91;4104039;28;20037;-66
2023/04/30 09:59:48;;;;;;;;;;;;;;;10.93;48.43;101922.34;4104984;28;20017;-65
2023/04/30 10:01:50;;;;;;;;;;;;;;;10.94;47.43;101924.03;4103716;28;20021;-65
2023/04/30 10:03:53;;;;;;;;;;;;;;;10.93;46.10;101917.78;4104285;28;20029;-65
2023/04/30 10:05:55;;;;;;;;;;;;;;;10.93;44.03;101916.94;4104987;28;20061;-66
2023/04/30 10:07:57;;;;;;;;;;;;;;;10.95;48.40;101914.94;4104378;28;20013;-64
2023/04/30 10:10:00;;;;;;;;;;;;;;;10.96;47.94;101916.66;4103575;28;20017;-65
2023/04/30 10:12:03;;;;;;;;;;;;;;;11.00;50.26;101912.63;4104055;28;19930;-65
2023/04/30 10:14:08;;;;;;;;;;;;;;;11.04;51.22;101915.88;4103890;28;20391;-66
2023/04/30 10:16:15;;;;;;;;;;;;;;;11.07;50.48;101907.47;4104318;28;20045;-65
2023/04/30 10:18:20;;;;;;;;;;;;;;;11.12;51.49;101908.69;4104283;28;20013;-67
2023/04/30 10:20:22;;;;;;;;;;;;;;;11.14;51.12;101909.44;4104642;28;19939;-66
2023/04/30 10:22:24;;;;;;;;;;;;;;;11.18;51.74;101913.50;4103021;28;19926;-66
2023/04/30 10:24:26;;;;;;;;;;;;;;;11.17;49.83;101917.22;4103479;28;20014;-66
2023/04/30 10:26:28;;;;;;;;;;;;;;;11.22;47.39;101905.94;4087412;29;19930;-65
2023/04/30 10:28:32;;;;;;;;;;;;;;;11.24;48.15;101913.88;4105637;28;20013;-66
2023/04/30 10:30:36;;;;;;;;;;;;;;;11.24;50.55;101917.47;4106281;28;20029;-66
2023/04/30 10:32:38;;;;;;;;;;;;;;;11.24;51.76;101913.88;4106077;28;19926;-66
2023/04/30 10:34:44;;;;;;;;;;;;;;;11.25;47.81;101913.75;4105879;28;20444;-66
2023/04/30 10:36:47;;;;;;;;;;;;;;;11.27;50.92;101910.88;4106744;28;20088;-65